createdAt,value
2018-12-15T00:00:24.499Z,72.6
2018-12-15T00:01:24.787Z,72.6
2018-12-15T00:02:24.684Z,72.3
2018-12-15T00:03:24.596Z,72.3
2018-12-15T00:04:24.490Z,72.3
2018-12-15T00:05:24.482Z,72.5
2018-12-15T00:06:24.370Z,72.4
2018-12-15T00:07:24.264Z,72.2
2018-12-15T00:08:24.158Z,72.1
2018-12-15T00:09:24.083Z,72
2018-12-15T00:10:23.970Z,72.1
2018-12-15T00:11:24.266Z,72.5
2018-12-15T00:12:24.146Z,72.7
2018-12-15T00:13:24.042Z,72.9
2018-12-15T00:14:23.962Z,72.8
2018-12-15T00:15:23.850Z,72.7
2018-12-15T00:16:23.740Z,72.5
2018-12-15T00:17:23.623Z,72.5
2018-12-15T00:18:23.508Z,73.3
2018-12-15T00:19:23.462Z,72.6
2018-12-15T00:20:23.345Z,72.5
2018-12-15T00:21:23.650Z,72.5
2018-12-15T00:22:23.610Z,73.1
2018-12-15T00:23:23.497Z,72.5
2018-12-15T00:24:23.400Z,72.4
2018-12-15T00:25:23.300Z,72.3
2018-12-15T00:26:23.229Z,72.3
2018-12-15T00:27:23.121Z,72.2
2018-12-15T00:28:23.008Z,72.1
2018-12-15T00:29:22.900Z,72
2018-12-15T00:30:22.806Z,72
2018-12-15T00:31:23.118Z,71.1
2018-12-15T00:41:24.242Z,68.2
2018-12-15T00:42:24.126Z,68.8
2018-12-15T00:43:23.996Z,69.2
2018-12-15T00:44:23.862Z,69.3
2018-12-15T00:45:23.765Z,69.9
2018-12-15T00:46:23.662Z,69.9
2018-12-15T00:47:23.540Z,69.7
2018-12-15T00:48:23.420Z,69.8
2018-12-15T00:49:23.309Z,70.1
2018-12-15T00:50:23.179Z,71.3
2018-12-15T00:51:23.587Z,70
2018-12-15T00:52:23.479Z,70.8
2018-12-15T00:53:23.359Z,70.8
2018-12-15T00:54:23.269Z,71.2
2018-12-15T00:55:23.157Z,71.3
2018-12-15T00:56:23.053Z,71.3
2018-12-15T00:57:22.945Z,71.3
2018-12-15T00:58:22.837Z,71.3
2018-12-15T00:59:22.717Z,71.4
2018-12-15T01:00:22.609Z,71.6
2018-12-15T01:01:22.906Z,71.3
2018-12-15T01:02:22.829Z,71.3
2018-12-15T01:03:22.718Z,71.3
2018-12-15T01:04:22.631Z,71.3
2018-12-15T01:05:22.513Z,71.4
2018-12-15T01:06:22.386Z,71.3
2018-12-15T01:07:22.277Z,71.3
2018-12-15T01:08:22.181Z,71.3
2018-12-15T01:09:22.076Z,71.2
2018-12-15T01:10:21.964Z,71.2
2018-12-15T01:11:22.262Z,71.4
2018-12-15T01:12:22.195Z,71.5
2018-12-15T01:13:22.101Z,71.6
2018-12-15T01:14:21.995Z,71.6
2018-12-15T01:15:21.884Z,71.4
2018-12-15T01:16:24.681Z,71.6
2018-12-15T01:17:24.550Z,71.7
2018-12-15T01:18:24.445Z,71.6
2018-12-15T01:19:24.320Z,71.5
2018-12-15T01:20:24.205Z,71.6
2018-12-15T01:21:24.522Z,72.5
2018-12-15T01:22:24.417Z,71.7
2018-12-15T01:23:24.340Z,72
2018-12-15T01:24:24.245Z,72
2018-12-15T01:25:24.131Z,71.8
2018-12-15T01:26:23.999Z,71.8
2018-12-15T01:27:23.878Z,71.7
2018-12-15T01:28:23.766Z,71.7
2018-12-15T01:29:23.664Z,71.7
2018-12-15T01:30:23.572Z,71.8
2018-12-15T01:31:23.898Z,71.8
2018-12-15T01:32:23.997Z,71.4
2018-12-15T01:33:23.883Z,71.6
2018-12-15T01:34:23.792Z,71.6
2018-12-15T01:35:23.682Z,71.8
2018-12-15T01:36:23.580Z,71.8
2018-12-15T01:37:23.469Z,71.7
2018-12-15T01:38:23.372Z,71.8
2018-12-15T01:39:23.278Z,72
2018-12-15T01:40:23.184Z,72
2018-12-15T01:41:26.244Z,72
2018-12-15T01:42:26.182Z,72
2018-12-15T01:43:26.092Z,71.9
2018-12-15T01:44:25.970Z,71.7
2018-12-15T01:45:25.873Z,72
2018-12-15T01:46:25.763Z,72
2018-12-15T01:47:27.772Z,71.9
2018-12-15T01:48:27.667Z,72
2018-12-15T01:49:27.544Z,72.9
2018-12-15T01:50:27.462Z,72.3
2018-12-15T01:51:27.762Z,72
2018-12-15T01:52:27.637Z,72.3
2018-12-15T01:53:27.535Z,72.3
2018-12-15T01:54:27.422Z,72.5
2018-12-15T01:55:27.350Z,72.6
2018-12-15T01:56:27.260Z,72.1
2018-12-15T01:57:27.148Z,72.2
2018-12-15T01:58:27.033Z,72.3
2018-12-15T01:59:26.912Z,72.2
2018-12-15T02:00:26.805Z,72.1
2018-12-15T02:01:27.137Z,72
2018-12-15T02:02:27.026Z,72.2
2018-12-15T02:03:26.926Z,72.1
2018-12-15T02:04:26.811Z,72
2018-12-15T02:05:26.691Z,72
2018-12-15T02:06:26.577Z,72
2018-12-15T02:07:26.501Z,71.8
2018-12-15T02:08:26.373Z,71.8
2018-12-15T02:09:26.253Z,71.6
2018-12-15T02:10:26.157Z,71.9
2018-12-15T02:11:26.479Z,71.6
2018-12-15T02:21:33.701Z,68.6
2018-12-15T02:22:33.597Z,69
2018-12-15T02:23:33.501Z,69.4
2018-12-15T02:24:33.388Z,69.5
2018-12-15T02:25:33.291Z,69.5
2018-12-15T02:26:33.171Z,69.6
2018-12-15T02:27:33.041Z,69.4
2018-12-15T02:28:32.941Z,69.7
2018-12-15T02:29:32.813Z,69.9
2018-12-15T02:30:32.699Z,70
2018-12-15T02:31:33.005Z,70.3
2018-12-15T02:32:32.897Z,70.3
2018-12-15T02:33:32.785Z,70.2
2018-12-15T02:34:32.719Z,70.4
2018-12-15T02:35:32.612Z,70.6
2018-12-15T02:36:32.499Z,70.6
2018-12-15T02:37:32.613Z,70.7
2018-12-15T02:38:32.509Z,70.7
2018-12-15T02:39:32.410Z,70.7
2018-12-15T02:40:32.325Z,71.1
2018-12-15T02:41:32.625Z,70.8
2018-12-15T02:42:32.533Z,71.1
2018-12-15T02:43:32.414Z,71.2
2018-12-15T02:44:32.309Z,71.3
2018-12-15T02:45:32.233Z,71.4
2018-12-15T02:46:32.136Z,71.1
2018-12-15T02:47:32.037Z,71.2
2018-12-15T02:48:31.931Z,71.2
2018-12-15T02:49:31.833Z,71.4
2018-12-15T02:50:31.986Z,71.8
2018-12-15T02:51:32.292Z,71.6
2018-12-15T02:52:32.189Z,71.3
2018-12-15T02:53:32.081Z,71.8
2018-12-15T02:54:31.996Z,71.9
2018-12-15T02:55:31.916Z,72.1
2018-12-15T02:56:31.846Z,71.8
2018-12-15T02:57:31.754Z,71.9
2018-12-15T02:58:31.647Z,71.8
2018-12-15T02:59:31.547Z,71.9
2018-12-15T03:00:31.472Z,72
2018-12-15T03:01:31.800Z,72.3
2018-12-15T03:02:31.693Z,72.8
2018-12-15T03:03:31.590Z,73
2018-12-15T03:04:31.506Z,72.9
2018-12-15T03:05:31.413Z,73
2018-12-15T03:06:31.328Z,73
2018-12-15T03:07:31.321Z,73
2018-12-15T03:08:31.227Z,73
2018-12-15T03:09:31.114Z,73.1
2018-12-15T03:10:31.014Z,73
2018-12-15T03:11:31.370Z,72.9
2018-12-15T03:31:27.176Z,67.4
2018-12-15T03:32:27.129Z,68.1
2018-12-15T03:33:27.053Z,68.1
2018-12-15T03:34:26.946Z,68.3
2018-12-15T03:35:26.844Z,68.5
2018-12-15T03:36:26.788Z,68.5
2018-12-15T03:37:26.678Z,68.9
2018-12-15T03:38:26.599Z,68.8
2018-12-15T03:39:26.503Z,68.9
2018-12-15T03:40:26.380Z,69.3
2018-12-15T03:41:26.674Z,69.4
2018-12-15T03:42:26.547Z,69.8
2018-12-15T03:43:26.439Z,70.1
2018-12-15T03:44:26.368Z,70.5
2018-12-15T03:45:26.245Z,70.5
2018-12-15T03:46:26.138Z,70.4
2018-12-15T03:47:26.204Z,70.5
2018-12-15T03:48:26.097Z,70.4
2018-12-15T03:49:26.044Z,70.7
2018-12-15T03:50:25.977Z,70.8
2018-12-15T03:51:26.358Z,70.7
2018-12-15T03:52:26.263Z,70.5
2018-12-15T03:53:26.393Z,70.6
2018-12-15T03:54:26.326Z,70.8
2018-12-15T03:55:26.438Z,70.8
2018-12-15T03:56:26.396Z,70.7
2018-12-15T03:57:26.294Z,70.9
2018-12-15T03:58:26.199Z,71.1
2018-12-15T03:59:26.089Z,71
2018-12-15T04:00:26.021Z,71
2018-12-15T04:01:26.364Z,71
2018-12-15T04:02:26.271Z,70.9
2018-12-15T04:03:26.183Z,71
2018-12-15T04:04:26.341Z,71.6
2018-12-15T04:05:26.268Z,70.5
2018-12-15T04:06:26.276Z,71
2018-12-15T04:07:26.216Z,71.2
2018-12-15T04:08:26.402Z,71
2018-12-15T04:09:26.381Z,71.1
2018-12-15T04:10:26.345Z,71.5
2018-12-15T04:11:26.684Z,71.8
2018-12-15T04:12:26.583Z,71.8
2018-12-15T04:13:26.481Z,71.8
2018-12-15T04:14:26.373Z,71.7
2018-12-15T04:15:26.268Z,71.2
2018-12-15T04:16:26.404Z,71
2018-12-15T04:17:26.284Z,70.9
2018-12-15T04:18:26.402Z,71.2
2018-12-15T04:19:26.325Z,71.2
2018-12-15T04:20:26.222Z,71.1
2018-12-15T04:21:26.591Z,71.4
2018-12-15T04:31:24.755Z,68
2018-12-15T04:32:24.659Z,68.8
2018-12-15T04:33:24.575Z,68.8
2018-12-15T04:34:24.471Z,68.8
2018-12-15T04:35:24.390Z,69.2
2018-12-15T04:36:24.305Z,69.3
2018-12-15T04:37:24.283Z,68.9
2018-12-15T04:38:24.207Z,69.3
2018-12-15T04:39:24.096Z,69.4
2018-12-15T04:40:23.980Z,69.8
2018-12-15T04:41:24.295Z,70.2
2018-12-15T04:42:24.192Z,70.3
2018-12-15T04:43:24.121Z,70.3
2018-12-15T04:44:24.022Z,70.3
2018-12-15T04:45:23.911Z,70.6
2018-12-15T04:46:23.801Z,70.6
2018-12-15T04:47:23.695Z,70.8
2018-12-15T04:48:23.585Z,70.9
2018-12-15T04:49:23.485Z,71
2018-12-15T04:50:23.371Z,70.8
2018-12-15T04:51:23.687Z,70.9
2018-12-15T04:52:23.597Z,71.3
2018-12-15T04:53:23.479Z,71.2
2018-12-15T04:54:23.381Z,71.3
2018-12-15T04:55:23.269Z,71.4
2018-12-15T04:56:23.155Z,71.6
2018-12-15T04:57:23.021Z,72
2018-12-15T04:58:22.913Z,72.2
2018-12-15T04:59:22.848Z,72.2
2018-12-15T05:00:22.755Z,72.2
2018-12-15T05:01:23.076Z,72.1
2018-12-15T05:02:22.964Z,72.2
2018-12-15T05:03:23.675Z,72.1
2018-12-15T05:04:23.594Z,72.1
2018-12-15T05:05:23.503Z,72.1
2018-12-15T05:06:23.398Z,72
2018-12-15T05:07:23.539Z,71.9
2018-12-15T05:08:23.427Z,71.8
2018-12-15T05:09:23.327Z,71.5
2018-12-15T05:10:23.225Z,71.5
2018-12-15T05:11:23.805Z,71.6
2018-12-15T05:12:23.712Z,71.6
2018-12-15T05:13:23.605Z,71.7
2018-12-15T05:14:23.506Z,71.6
2018-12-15T05:15:23.641Z,71.6
2018-12-15T05:16:23.575Z,71.5
2018-12-15T05:17:23.493Z,71.4
2018-12-15T05:18:23.373Z,71.6
2018-12-15T05:19:23.280Z,71.5
2018-12-15T05:20:23.171Z,71.4
2018-12-15T05:21:23.495Z,71.6
2018-12-15T05:22:23.375Z,71.8
2018-12-15T05:23:23.301Z,72
2018-12-15T05:24:23.202Z,72
2018-12-15T05:25:23.089Z,72
2018-12-15T05:26:22.973Z,72.2
2018-12-15T05:27:22.904Z,72.5
2018-12-15T05:28:22.799Z,72.5
2018-12-15T05:29:22.707Z,72.4
2018-12-15T05:30:22.602Z,72.3
2018-12-15T05:31:22.931Z,72.3
2018-12-15T05:41:20.983Z,68.8
2018-12-15T05:42:20.874Z,69.4
2018-12-15T05:43:20.788Z,69.5
2018-12-15T05:44:20.684Z,69.8
2018-12-15T05:45:20.568Z,70
2018-12-15T05:46:20.468Z,70
2018-12-15T05:47:20.364Z,70.1
2018-12-15T05:48:26.079Z,70.1
2018-12-15T05:49:25.982Z,70.1
2018-12-15T05:50:25.875Z,70.2
2018-12-15T05:51:26.204Z,70.3
2018-12-15T05:52:26.095Z,70.2
2018-12-15T05:53:26.019Z,70.3
2018-12-15T05:54:25.954Z,70.2
2018-12-15T05:55:25.853Z,70
2018-12-15T05:56:25.741Z,69.8
2018-12-15T05:57:25.711Z,69.8
2018-12-15T05:58:25.608Z,69.8
2018-12-15T05:59:25.510Z,70
2018-12-15T06:00:25.403Z,70.2
2018-12-15T06:01:25.728Z,70.2
2018-12-15T06:11:23.935Z,67.2
2018-12-15T06:12:23.831Z,68
2018-12-15T06:13:23.746Z,68.1
2018-12-15T06:14:23.631Z,68.2
2018-12-15T06:15:23.561Z,68.3
2018-12-15T06:16:23.461Z,68.5
2018-12-15T06:17:23.365Z,68.6
2018-12-15T06:18:23.249Z,68.3
2018-12-15T06:19:23.138Z,68.7
2018-12-15T06:20:23.030Z,68.9
2018-12-15T06:21:23.369Z,69.3
2018-12-15T06:22:23.314Z,69
2018-12-15T06:23:23.203Z,68.8
2018-12-15T06:41:20.370Z,65.9
2018-12-15T06:42:20.290Z,66.5
2018-12-15T06:43:20.257Z,67
2018-12-15T06:44:20.175Z,67.2
2018-12-15T06:45:20.077Z,67.4
2018-12-15T06:46:19.975Z,67.6
2018-12-15T06:47:19.872Z,67.8
2018-12-15T06:48:19.775Z,67.8
2018-12-15T06:49:19.667Z,67.8
2018-12-15T06:50:19.553Z,67.9
2018-12-15T06:51:19.851Z,68.2
2018-12-15T06:52:19.733Z,68.6
2018-12-15T06:53:19.651Z,68.8
2018-12-15T06:54:19.549Z,68.8
2018-12-15T06:55:19.431Z,68.8
2018-12-15T06:56:19.333Z,69.1
2018-12-15T06:57:19.282Z,69.4
2018-12-15T06:58:19.190Z,69.4
2018-12-15T06:59:19.073Z,69.7
2018-12-15T07:00:18.958Z,69.9
2018-12-15T07:01:19.259Z,70.1
2018-12-15T07:02:19.138Z,70.4
2018-12-15T07:03:19.051Z,70.7
2018-12-15T07:04:18.932Z,70.7
2018-12-15T07:05:18.835Z,70.7
2018-12-15T07:06:21.629Z,70.7
2018-12-15T07:07:21.533Z,70.8
2018-12-15T07:08:21.453Z,71
2018-12-15T07:09:21.357Z,70.9
2018-12-15T07:10:21.457Z,71
2018-12-15T07:11:21.791Z,71.1
2018-12-15T07:12:21.684Z,70.9
2018-12-15T07:13:21.581Z,70.8
2018-12-15T07:14:21.499Z,70.9
2018-12-15T07:15:21.643Z,70.9
2018-12-15T07:16:21.531Z,71.2
2018-12-15T07:17:21.472Z,71.4
2018-12-15T07:18:21.350Z,71.5
2018-12-15T07:19:21.242Z,71.8
2018-12-15T07:20:21.379Z,72
2018-12-15T07:21:21.706Z,71.7
2018-12-15T07:22:21.587Z,71.6
2018-12-15T07:23:21.482Z,71.7
2018-12-15T07:24:21.381Z,71.8
2018-12-15T07:25:21.279Z,71.6
2018-12-15T07:26:21.166Z,71.7
2018-12-15T07:27:21.051Z,71.4
2018-12-15T07:28:20.933Z,71.6
2018-12-15T07:29:20.824Z,71.7
2018-12-15T07:30:20.741Z,71.6
2018-12-15T07:31:21.053Z,70.8
2018-12-15T07:32:20.939Z,71.3
2018-12-15T07:33:20.850Z,71.6
2018-12-15T07:34:20.735Z,72
2018-12-15T07:35:20.689Z,72.2
2018-12-15T07:36:20.611Z,71.6
2018-12-15T07:37:20.507Z,71.7
2018-12-15T07:38:20.410Z,71.9
2018-12-15T07:39:20.292Z,71.9
2018-12-15T07:40:20.169Z,71.8
2018-12-15T07:41:20.601Z,71.8
2018-12-15T07:42:20.513Z,71.6
2018-12-15T07:43:20.414Z,71.6
2018-12-15T07:44:20.322Z,71.6
2018-12-15T07:45:20.233Z,71.6
2018-12-15T07:46:20.127Z,71.6
2018-12-15T07:47:20.063Z,71.2
2018-12-15T07:48:19.961Z,71.3
2018-12-15T07:49:19.875Z,71.6
2018-12-15T07:50:19.754Z,71.7
2018-12-15T07:51:20.061Z,71.5
2018-12-15T07:52:19.957Z,71.3
2018-12-15T07:53:19.845Z,71.6
2018-12-15T07:54:19.731Z,71.6
2018-12-15T07:55:19.625Z,71.4
2018-12-15T07:56:19.523Z,71.6
2018-12-15T07:57:19.415Z,71.7
2018-12-15T07:58:19.327Z,71.4
2018-12-15T07:59:19.199Z,71.3
2018-12-15T08:00:19.091Z,71.5
2018-12-15T08:01:19.449Z,71.6
2018-12-15T08:21:24.010Z,67.4
2018-12-15T08:22:26.955Z,67.8
2018-12-15T08:23:26.863Z,67.9
2018-12-15T08:24:26.790Z,68
2018-12-15T08:25:26.696Z,68.2
2018-12-15T08:26:26.587Z,68.5
2018-12-15T08:27:26.474Z,68.8
2018-12-15T08:28:26.367Z,69
2018-12-15T08:29:26.280Z,69
2018-12-15T08:30:26.185Z,68.9
2018-12-15T08:31:26.755Z,69.4
2018-12-15T08:32:26.652Z,68.7
2018-12-15T09:01:20.933Z,66.1
2018-12-15T09:02:20.884Z,66.6
2018-12-15T09:03:20.763Z,66.9
2018-12-15T09:04:20.655Z,66.9
2018-12-15T09:05:20.526Z,66.8
2018-12-15T09:06:20.399Z,66.8
2018-12-15T09:07:20.307Z,67.2
2018-12-15T09:08:20.199Z,67.4
2018-12-15T09:09:20.092Z,67.6
2018-12-15T09:10:19.974Z,67.7
2018-12-15T09:11:20.308Z,67.8
2018-12-15T09:12:20.241Z,68
2018-12-15T09:13:20.130Z,68.4
2018-12-15T09:14:20.012Z,68.6
2018-12-15T09:15:19.892Z,68.7
2018-12-15T09:16:26.868Z,68.5
2018-12-15T09:17:26.813Z,68.4
2018-12-15T09:18:26.715Z,68.4
2018-12-15T09:19:26.608Z,68.9
2018-12-15T09:20:26.489Z,69.3
2018-12-15T09:21:27.024Z,69
2018-12-15T09:22:26.949Z,69.3
2018-12-15T09:23:26.849Z,69.5
2018-12-15T09:24:26.748Z,69.5
2018-12-15T09:25:26.657Z,69.2
2018-12-15T09:26:26.563Z,69.4
2018-12-15T09:27:26.454Z,69.4
2018-12-15T09:28:26.377Z,69.7
2018-12-15T09:29:26.275Z,69.8
2018-12-15T09:30:26.402Z,69.8
2018-12-15T09:31:26.737Z,69.5
2018-12-15T09:32:26.667Z,69.6
2018-12-15T09:33:26.561Z,69.8
2018-12-15T09:34:26.465Z,69.3
2018-12-15T09:35:26.370Z,69
2018-12-15T09:36:26.257Z,69.3
2018-12-15T09:37:26.167Z,69.7
2018-12-15T09:38:26.057Z,69.7
2018-12-15T09:39:26.008Z,69.8
2018-12-15T09:40:25.888Z,69.8
2018-12-15T09:41:26.431Z,69.8
2018-12-15T09:51:24.626Z,67
2018-12-15T09:52:24.509Z,67.7
2018-12-15T09:53:24.415Z,67.9
2018-12-15T09:54:24.355Z,67.4
2018-12-15T09:55:24.231Z,67.8
2018-12-15T09:56:24.137Z,68
2018-12-15T09:57:24.029Z,68.1
2018-12-15T09:58:23.926Z,68.3
2018-12-15T09:59:23.825Z,68.3
2018-12-15T10:00:23.740Z,68
2018-12-15T10:01:24.088Z,68.4
2018-12-15T10:11:21.985Z,65.3
2018-12-15T10:12:21.897Z,66
2018-12-15T10:13:21.782Z,66
2018-12-15T10:14:21.693Z,66.1
2018-12-15T10:15:21.567Z,66.4
2018-12-15T10:16:21.466Z,66.4
2018-12-15T10:17:21.391Z,66.6
2018-12-15T10:18:21.309Z,67
2018-12-15T10:19:25.086Z,67.1
2018-12-15T10:20:24.999Z,67.5
2018-12-15T10:21:25.318Z,67.5
2018-12-15T10:22:25.201Z,67.1
2018-12-15T10:23:25.115Z,67.2
2018-12-15T10:24:25.027Z,66.7
2018-12-15T10:25:25.134Z,66.8
2018-12-15T10:26:25.019Z,66.6
2018-12-15T10:27:25.139Z,67.2
2018-12-15T10:28:25.218Z,67.5
2018-12-15T10:29:25.131Z,67.7
2018-12-15T10:30:25.020Z,67.5
2018-12-15T10:31:25.318Z,67.2
2018-12-15T10:32:25.204Z,66.5
2018-12-15T10:41:23.370Z,62.5
2018-12-15T10:42:23.262Z,63.4
2018-12-15T10:43:23.218Z,62.9
2018-12-15T10:44:23.112Z,63
2018-12-15T10:45:23.002Z,63.1
2018-12-15T10:46:22.889Z,63.1
2018-12-15T10:47:22.794Z,62.7
2018-12-15T10:48:22.686Z,63
2018-12-15T10:49:22.579Z,63.6
2018-12-15T10:50:22.505Z,63.7
2018-12-15T10:51:22.841Z,64
2018-12-15T10:52:22.749Z,64
2018-12-15T10:53:22.644Z,64.3
2018-12-15T10:54:22.528Z,64.7
2018-12-15T10:55:22.406Z,64.5
2018-12-15T10:56:22.336Z,64.5
2018-12-15T10:57:22.230Z,64.3
2018-12-15T10:58:22.098Z,63.9
2018-12-15T10:59:21.988Z,63.7
2018-12-15T11:00:21.901Z,63.8
2018-12-15T11:01:22.240Z,64
2018-12-15T11:02:22.164Z,64.7
2018-12-15T11:03:22.056Z,63.8
2018-12-15T11:04:21.943Z,63.7
2018-12-15T11:05:21.828Z,63.4
2018-12-15T11:06:21.729Z,62.8
2018-12-15T11:07:21.618Z,63.2
2018-12-15T11:08:21.506Z,63.5
2018-12-15T11:09:21.400Z,63.8
2018-12-15T11:10:21.280Z,62.9
2018-12-15T11:11:21.624Z,62.7
2018-12-15T11:12:21.516Z,63.3
2018-12-15T11:13:21.410Z,63.7
2018-12-15T11:14:21.307Z,63.9
2018-12-15T11:15:21.266Z,64.4
2018-12-15T11:16:21.183Z,63.3
2018-12-15T11:17:21.059Z,62.6
2018-12-15T11:18:20.941Z,62.6
2018-12-15T11:19:20.827Z,63.1
2018-12-15T11:20:20.719Z,63.8
2018-12-15T11:21:21.032Z,63.9
2018-12-15T11:22:20.954Z,64.3
2018-12-15T11:23:20.850Z,64.1
2018-12-15T11:24:20.729Z,64.3
2018-12-15T11:25:20.612Z,63.6
2018-12-15T11:26:20.493Z,63.6
2018-12-15T11:27:20.377Z,64.1
2018-12-15T11:28:20.348Z,63.6
2018-12-15T11:29:20.235Z,63.8
2018-12-15T11:30:20.117Z,64.2
2018-12-15T11:31:20.458Z,62.9
2018-12-15T11:32:20.349Z,62.4
2018-12-15T11:33:20.271Z,62.4
2018-12-15T11:34:20.181Z,62.7
2018-12-15T11:35:20.097Z,63.8
2018-12-15T11:36:19.993Z,63.4
2018-12-15T11:37:19.889Z,63.7
2018-12-15T11:38:19.792Z,63
2018-12-15T11:39:19.678Z,62.9
2018-12-15T11:40:19.586Z,63
2018-12-15T11:41:19.911Z,63.1
2018-12-15T11:42:19.803Z,63
2018-12-15T11:43:19.675Z,63.1
2018-12-15T11:44:19.595Z,62.7
2018-12-15T11:45:19.487Z,62.7
2018-12-15T11:46:19.390Z,63.1
2018-12-15T11:47:19.285Z,63.4
2018-12-15T11:48:19.194Z,63.5
2018-12-15T11:49:19.083Z,63
2018-12-15T11:50:18.985Z,63.2
2018-12-15T11:51:19.300Z,64
2018-12-15T11:52:19.203Z,64.1
2018-12-15T11:53:19.084Z,63.5
2018-12-15T11:54:18.978Z,63.4
2018-12-15T11:55:18.891Z,63.2
2018-12-15T11:56:18.799Z,63.6
2018-12-15T11:57:18.714Z,64.3
2018-12-15T11:58:18.631Z,64.5
2018-12-15T11:59:18.529Z,63.9
2018-12-15T12:00:18.406Z,63.9
2018-12-15T12:01:19.740Z,64.3
2018-12-15T12:02:19.605Z,63.8
2018-12-15T12:03:19.494Z,63.6
2018-12-15T12:04:19.389Z,64
2018-12-15T12:05:19.282Z,64.5
2018-12-15T12:06:19.232Z,64.8
2018-12-15T12:07:19.140Z,65
2018-12-15T12:08:19.015Z,64.5
2018-12-15T12:09:18.911Z,64.4
2018-12-15T12:10:18.787Z,64.7
2018-12-15T12:11:19.084Z,64.8
2018-12-15T12:12:19.004Z,64.1
2018-12-15T12:13:18.903Z,63.6
2018-12-15T12:14:18.792Z,63.7
2018-12-15T12:15:18.687Z,64
2018-12-15T12:16:18.568Z,64
2018-12-15T12:17:18.460Z,63.8
2018-12-15T12:18:18.356Z,63.5
2018-12-15T12:19:18.256Z,63.4
2018-12-15T12:20:18.150Z,63.3
2018-12-15T12:21:18.534Z,63.8
2018-12-15T12:22:18.431Z,64.3
2018-12-15T12:23:18.338Z,64.1
2018-12-15T12:24:18.244Z,63.9
2018-12-15T12:25:18.125Z,64
2018-12-15T12:26:18.031Z,64.2
2018-12-15T12:27:17.929Z,64.2
2018-12-15T12:28:17.838Z,64.1
2018-12-15T12:29:17.731Z,64.2
2018-12-15T12:30:17.616Z,64.4
2018-12-15T12:31:17.952Z,64.3
2018-12-15T12:32:17.852Z,63.2
2018-12-15T12:41:15.994Z,60.5
2018-12-15T12:42:15.916Z,61.2
2018-12-15T12:43:15.800Z,61.6
2018-12-15T12:44:15.678Z,61.5
2018-12-15T12:45:15.586Z,61.9
2018-12-15T12:46:15.473Z,61.9
2018-12-15T12:47:18.348Z,61.7
2018-12-15T12:48:18.248Z,62
2018-12-15T12:49:18.145Z,62.3
2018-12-15T12:50:18.083Z,62.3
2018-12-15T12:51:18.421Z,62.3
2018-12-15T12:52:18.318Z,62.3
2018-12-15T12:53:18.226Z,62.2
2018-12-15T12:54:18.102Z,62.3
2018-12-15T12:55:18.002Z,61.9
2018-12-15T12:56:17.908Z,62.3
2018-12-15T12:57:17.792Z,62.7
2018-12-15T12:58:17.694Z,62.9
2018-12-15T12:59:17.587Z,63.2
2018-12-15T13:00:17.484Z,63.4
2018-12-15T13:01:17.802Z,63.7
2018-12-15T13:02:17.696Z,64.1
2018-12-15T13:03:17.582Z,64
2018-12-15T13:04:17.476Z,63.6
2018-12-15T13:05:17.376Z,63.8
2018-12-15T13:06:17.282Z,64
2018-12-15T13:07:17.198Z,63.8
2018-12-15T13:08:17.090Z,63.7
2018-12-15T13:09:16.982Z,63.5
2018-12-15T13:10:16.928Z,63.5
2018-12-15T13:11:17.252Z,64.1
2018-12-15T13:12:17.366Z,63.7
2018-12-15T13:21:15.814Z,61.5
2018-12-15T13:22:15.734Z,62.3
2018-12-15T13:23:15.623Z,62.5
2018-12-15T13:24:15.566Z,62.7
2018-12-15T13:25:15.490Z,63.3
2018-12-15T13:26:15.429Z,63.8
2018-12-15T13:27:15.337Z,64
2018-12-15T13:28:15.226Z,64.1
2018-12-15T13:29:15.148Z,64.1
2018-12-15T13:30:15.048Z,64.2
2018-12-15T13:31:15.380Z,64.2
2018-12-15T13:32:15.278Z,65.7
2018-12-15T13:33:15.176Z,64.8
2018-12-15T13:34:15.075Z,65.2
2018-12-15T13:35:14.974Z,65.4
2018-12-15T13:36:14.888Z,65.5
2018-12-15T13:37:14.776Z,65.5
2018-12-15T13:38:14.668Z,65.5
2018-12-15T13:39:14.548Z,65.8
2018-12-15T13:40:14.473Z,65.7
2018-12-15T13:41:14.801Z,65.7
2018-12-15T13:42:14.687Z,65.8
2018-12-15T13:43:14.626Z,65.8
2018-12-15T13:44:14.500Z,65.8
2018-12-15T13:45:14.394Z,66.3
2018-12-15T13:46:14.361Z,65.6
2018-12-15T13:47:14.248Z,65.4
2018-12-15T13:48:14.153Z,65.4
2018-12-15T13:49:14.051Z,65.4
2018-12-15T13:50:13.963Z,65.7
2018-12-15T13:51:14.274Z,66
2018-12-15T13:52:14.190Z,66.1
2018-12-15T14:01:15.188Z,62.7
2018-12-15T14:02:15.103Z,63.4
2018-12-15T14:03:14.977Z,64.5
2018-12-15T14:04:14.887Z,63.8
2018-12-15T14:05:14.774Z,63.8
2018-12-15T14:06:14.643Z,64.6
2018-12-15T14:07:14.615Z,64
2018-12-15T14:08:14.518Z,64.2
2018-12-15T14:09:14.417Z,64.4
2018-12-15T14:10:14.347Z,64.5
2018-12-15T14:11:14.689Z,64.5
2018-12-15T14:12:14.590Z,64.7
2018-12-15T14:21:17.779Z,62.3
2018-12-15T14:22:17.715Z,62.9
2018-12-15T14:23:17.596Z,63.2
2018-12-15T14:24:17.527Z,63.3
2018-12-15T14:25:17.420Z,63.7
2018-12-15T14:26:17.311Z,64
2018-12-15T14:27:17.208Z,64
2018-12-15T14:28:17.096Z,64.1
2018-12-15T14:29:16.989Z,64.3
2018-12-15T14:30:16.909Z,64.6
2018-12-15T14:31:17.229Z,64.8
2018-12-15T14:32:17.146Z,65.1
2018-12-15T14:33:17.030Z,65
2018-12-15T14:34:16.909Z,65
2018-12-15T14:35:16.849Z,65
2018-12-15T14:36:16.762Z,65.2
2018-12-15T14:37:16.643Z,65.3
2018-12-15T14:38:16.553Z,65.2
2018-12-15T14:39:16.453Z,65.4
2018-12-15T14:40:16.347Z,65.6
2018-12-15T14:41:16.759Z,65.6
2018-12-15T14:42:16.655Z,65.6
2018-12-15T14:43:16.545Z,65.8
2018-12-15T14:44:16.451Z,65.8
2018-12-15T14:45:16.345Z,66
2018-12-15T14:46:16.321Z,66.1
2018-12-15T14:47:16.223Z,66.3
2018-12-15T14:48:16.120Z,66.3
2018-12-15T14:49:16.033Z,66.3
2018-12-15T14:50:15.929Z,66.2
2018-12-15T14:51:16.286Z,66.3
2018-12-15T14:52:16.185Z,66.5
2018-12-15T14:53:16.084Z,66.4
2018-12-15T14:54:15.957Z,66.5
2018-12-15T14:55:15.851Z,66.3
2018-12-15T14:56:15.758Z,66.4
2018-12-15T14:57:15.686Z,66.5
2018-12-15T14:58:15.579Z,66.6
2018-12-15T14:59:15.477Z,66.7
2018-12-15T15:00:15.413Z,66.8
2018-12-15T15:01:15.748Z,66.7
2018-12-15T15:02:15.711Z,66.9
2018-12-15T15:03:15.611Z,66.9
2018-12-15T15:04:15.498Z,66.9
2018-12-15T15:05:15.415Z,66.8
2018-12-15T15:06:15.323Z,66.9
2018-12-15T15:07:15.227Z,66.9
2018-12-15T15:08:15.165Z,66.9
2018-12-15T15:09:15.053Z,66.9
2018-12-15T15:10:14.992Z,67
2018-12-15T15:11:15.339Z,66.9
2018-12-15T15:12:15.452Z,66.9
2018-12-15T15:13:15.345Z,67.7
2018-12-15T15:14:15.249Z,67
2018-12-15T15:15:15.181Z,67.2
2018-12-15T15:16:15.068Z,67.2
2018-12-15T15:17:14.956Z,67.3
2018-12-15T15:18:14.838Z,67.4
2018-12-15T15:19:14.751Z,67.5
2018-12-15T15:20:14.627Z,67.6
2018-12-15T15:21:14.943Z,67.8
2018-12-15T15:22:14.845Z,67.2
2018-12-15T15:31:13.069Z,65.1
2018-12-15T15:32:12.988Z,65.7
2018-12-15T15:33:12.956Z,66
2018-12-15T15:34:12.870Z,66.3
2018-12-15T15:35:12.787Z,66.3
2018-12-15T15:36:12.701Z,66.5
2018-12-15T15:37:12.607Z,66.6
2018-12-15T15:38:12.513Z,66.7
2018-12-15T15:39:12.629Z,66.8
2018-12-15T15:40:12.523Z,67
2018-12-15T15:41:12.863Z,67.1
2018-12-15T15:42:12.760Z,67.2
2018-12-15T15:43:12.636Z,67.3
2018-12-15T15:44:12.519Z,67.7
2018-12-15T15:45:12.421Z,67.8
2018-12-15T15:46:12.332Z,67.9
2018-12-15T15:47:12.239Z,67.9
2018-12-15T15:48:12.127Z,68
2018-12-15T15:49:12.031Z,68
2018-12-15T15:50:11.938Z,68.1
2018-12-15T15:51:12.263Z,68.1
2018-12-15T15:52:12.229Z,68.2
2018-12-15T15:53:12.126Z,68.2
2018-12-15T15:54:12.022Z,68.3
2018-12-15T15:55:11.913Z,68.3
2018-12-15T15:56:11.803Z,68.3
2018-12-15T15:57:11.726Z,68.3
2018-12-15T15:58:11.845Z,68.4
2018-12-15T15:59:11.751Z,69.2
2018-12-15T16:00:11.640Z,68.4
2018-12-15T16:01:11.951Z,68.7
2018-12-15T16:02:11.849Z,69
2018-12-15T16:03:11.761Z,69.2
2018-12-15T16:04:11.658Z,69.3
2018-12-15T16:05:11.563Z,69.3
2018-12-15T16:06:11.451Z,69.1
2018-12-15T16:07:11.335Z,69.1
2018-12-15T16:08:11.244Z,69.2
2018-12-15T16:09:11.136Z,69.6
2018-12-15T16:10:11.052Z,69.5
2018-12-15T16:11:11.412Z,69.4
2018-12-15T16:12:11.290Z,69.6
2018-12-15T16:13:11.202Z,69.5
2018-12-15T16:14:11.088Z,69.7
2018-12-15T16:15:10.979Z,69.8
2018-12-15T16:16:10.868Z,69.9
2018-12-15T16:17:10.757Z,69.9
2018-12-15T16:18:10.649Z,70
2018-12-15T16:19:10.575Z,70
2018-12-15T16:20:10.476Z,69.8
2018-12-15T16:21:13.530Z,69.7
2018-12-15T16:22:13.428Z,69.8
2018-12-15T16:23:13.336Z,69.6
2018-12-15T16:24:13.264Z,69.8
2018-12-15T16:25:13.165Z,69.9
2018-12-15T16:26:13.072Z,69.9
2018-12-15T16:27:12.973Z,70
2018-12-15T16:28:12.866Z,69.6
2018-12-15T16:29:12.765Z,69.4
2018-12-15T16:30:12.676Z,69.5
2018-12-15T16:31:15.632Z,69.6
2018-12-15T16:32:15.565Z,69.7
2018-12-15T16:33:15.478Z,69.7
2018-12-15T16:34:15.382Z,69.7
2018-12-15T16:35:15.298Z,70
2018-12-15T16:36:15.422Z,70
2018-12-15T16:37:15.316Z,70
2018-12-15T16:38:15.212Z,69.8
2018-12-15T16:39:15.127Z,70